KPDKMBPV

Guest
Details From KPDK - Dekalb Peachtree
To MBPV - Providenciales
Flight Number -
Tags Generated
Created
Modified
Stats Distance 966 nm / 1,789 km
Max Altitude 0 ft / 0 m
Waypoints 6
Social Downloads 0
Likes 0
Share VATSIM

Download

Looking for another format? Having issues loading an existing format? Contact us
Advertisement - Login to hide

Notes

Generated

Route

KPDK KAXFY KR78W LOGVN PVN30 MBPV

ID Type Via Altitude Latitude Longitude Leg Dist Tot Dist Heading (true) Name
O KPDK APT - 0 ft / 0 m 33.87368˚ -84.30737˚ - 0 nm - -
KAXFY FIX - 0 ft / 0 m 31.21989˚ -81.33594˚ 219 nm 219 nm 136° / 137° -
KR78W FIX - 0 ft / 0 m 28.00000˚ -78.00000˚ 260 nm 479 nm 137° / 139° -
LOGVN FIX - 0 ft / 0 m 24.53333˚ -74.77806˚ 270 nm 750 nm 139° / 141° -
PVN30 FIX - 0 ft / 0 m 21.85275˚ -72.38057˚ 208 nm 958 nm 140° / 141° -
O MBPV APT - 0 ft / 0 m 21.77415˚ -72.27707˚ 7 nm 966 nm 129° / 129° -

Altitude Profile

Advertisement - Login to hide

Weather


0- 5 10 15 20 25 30 35+ Temperature / ° C

Clouds and Precipitation
Forecast for 2018-06-25 12:00 UTC. Updated 2 hours ago

Ground ~20,000 ft ~40,000 ft Winds

KPDK

Details ICAO KPDK (PDK)
Name Dekalb Peachtree
Region United States
Timezone America/New_York (UTC-4.0)
Stats Elevation 1,003 ft / 306 m (AMSL)
Location 33.875424° -84.302177°
Runways 4
Magnetic Variation 5.257° W

METAR

KPDK 251053Z 00000KT 5SM BR CLR 22/22 A3009 RMK AO2 SLP169 T02220217

Decode

TAF

KPDK 250547Z 2506/2606 VRB02KT P6SM SCT250 FM251100 26004KT P6SM SCT250 FM251800 27006KT P6SM BKN040 FM260200 29005KT P6SM BKN250

Decode

Departure Runways

ID Width Length Bearing (true) Bearing (mag) Surface Threshold Offset Overrun Length
02L 151 ft / 46 m 3,754 ft / 1,144 m 20.43° 25.69° Asphalt 0 ft / 0 m 0 ft / 0 m
02R 98 ft / 30 m 6,014 ft / 1,833 m 20.42° 25.68° Concrete 0 ft / 0 m 0 ft / 0 m
09 151 ft / 46 m 3,402 ft / 1,037 m 86.38° 91.64° Asphalt 0 ft / 0 m 0 ft / 0 m
16 151 ft / 46 m 3,976 ft / 1,212 m 157.48° 162.74° Asphalt 0 ft / 0 m 0 ft / 0 m
20L 98 ft / 30 m 6,014 ft / 1,833 m 200.42° 205.68° Concrete 1,001 ft / 305 m 0 ft / 0 m
20R 151 ft / 46 m 3,754 ft / 1,144 m 200.43° 205.69° Asphalt 0 ft / 0 m 0 ft / 0 m
27 151 ft / 46 m 3,402 ft / 1,037 m 266.39° 271.65° Asphalt 0 ft / 0 m 0 ft / 0 m
34 151 ft / 46 m 3,976 ft / 1,212 m 337.49° 342.75° Asphalt 0 ft / 0 m 0 ft / 0 m

MBPV

Details ICAO MBPV (PLS)
Name Providenciales
Region Turks and Caicos Islands
Timezone America/Grand_Turk (UTC-4.0)
Stats Elevation 15 ft / 5 m (AMSL)
Location 21.773600° -72.265900°
Runways 1
Magnetic Variation 10.647° W

METAR

MBPV 251100Z 11007KT 9999 SCT012 28/23 Q1018

Decode

TAF

Not found

Destination Runways

ID Width Length Bearing (true) Bearing (mag) Surface Threshold Offset Overrun Length
10 148 ft / 45 m 7,584 ft / 2,312 m 93.01° 103.66° Asphalt 600 ft / 183 m 200 ft / 61 m
28 148 ft / 45 m 7,584 ft / 2,312 m 273.02° 283.67° Asphalt 0 ft / 0 m 200 ft / 61 m